sensor_id;sensor_type;location;lat;lon;timestamp;temperature;humidity
10282;DHT22;5186;59.472;18.048;2023-08-31T00:00:22;13.10;99.90
10282;DHT22;5186;59.472;18.048;2023-08-31T00:02:48;13.00;99.90
10282;DHT22;5186;59.472;18.048;2023-08-31T00:05:13;13.00;99.90
10282;DHT22;5186;59.472;18.048;2023-08-31T00:07:39;13.00;99.90
10282;DHT22;5186;59.472;18.048;2023-08-31T00:10:05;13.00;99.90
10282;DHT22;5186;59.472;18.048;2023-08-31T00:12:35;12.90;99.90
10282;DHT22;5186;59.472;18.048;2023-08-31T00:15:02;12.90;99.90
10282;DHT22;5186;59.472;18.048;2023-08-31T00:17:30;12.90;99.90
10282;DHT22;5186;59.472;18.048;2023-08-31T00:19:55;12.80;99.90
10282;DHT22;5186;59.472;18.048;2023-08-31T00:22:21;12.80;99.90
10282;DHT22;5186;59.472;18.048;2023-08-31T00:24:46;12.80;99.90
10282;DHT22;5186;59.472;18.048;2023-08-31T00:27:12;12.80;99.90
10282;DHT22;5186;59.472;18.048;2023-08-31T00:29:40;12.80;99.90
10282;DHT22;5186;59.472;18.048;2023-08-31T00:32:06;12.80;99.90
10282;DHT22;5186;59.472;18.048;2023-08-31T00:34:31;12.70;99.90
10282;DHT22;5186;59.472;18.048;2023-08-31T00:36:57;12.70;99.90
10282;DHT22;5186;59.472;18.048;2023-08-31T00:39:23;12.70;99.90
10282;DHT22;5186;59.472;18.048;2023-08-31T00:41:48;12.80;99.90
10282;DHT22;5186;59.472;18.048;2023-08-31T00:44:15;12.70;99.90
10282;DHT22;5186;59.472;18.048;2023-08-31T00:46:41;12.70;99.90
10282;DHT22;5186;59.472;18.048;2023-08-31T00:49:07;12.70;99.90
10282;DHT22;5186;59.472;18.048;2023-08-31T00:51:34;12.70;99.90
10282;DHT22;5186;59.472;18.048;2023-08-31T00:54:00;12.70;99.90
10282;DHT22;5186;59.472;18.048;2023-08-31T00:56:25;12.70;99.90
10282;DHT22;5186;59.472;18.048;2023-08-31T00:58:52;12.80;99.90
10282;DHT22;5186;59.472;18.048;2023-08-31T01:04:00;12.80;99.90
10282;DHT22;5186;59.472;18.048;2023-08-31T01:14:32;13.00;99.90
10282;DHT22;5186;59.472;18.048;2023-08-31T01:16:59;13.10;99.90
10282;DHT22;5186;59.472;18.048;2023-08-31T01:21:59;13.10;99.90
10282;DHT22;5186;59.472;18.048;2023-08-31T01:24:26;13.10;99.90
10282;DHT22;5186;59.472;18.048;2023-08-31T01:26:52;13.10;99.90
10282;DHT22;5186;59.472;18.048;2023-08-31T01:29:18;13.10;99.90
10282;DHT22;5186;59.472;18.048;2023-08-31T01:31:44;13.20;99.90
10282;DHT22;5186;59.472;18.048;2023-08-31T01:34:10;13.20;99.90
10282;DHT22;5186;59.472;18.048;2023-08-31T01:36:38;13.20;99.90
10282;DHT22;5186;59.472;18.048;2023-08-31T01:39:19;13.20;99.90
10282;DHT22;5186;59.472;18.048;2023-08-31T01:41:55;13.20;99.90
10282;DHT22;5186;59.472;18.048;2023-08-31T01:44:22;13.20;99.90
10282;DHT22;5186;59.472;18.048;2023-08-31T01:46:52;13.20;99.90
10282;DHT22;5186;59.472;18.048;2023-08-31T01:49:20;13.10;99.90
10282;DHT22;5186;59.472;18.048;2023-08-31T01:51:46;13.10;99.90
10282;DHT22;5186;59.472;18.048;2023-08-31T01:54:12;13.20;99.90
10282;DHT22;5186;59.472;18.048;2023-08-31T01:56:37;13.20;99.90
10282;DHT22;5186;59.472;18.048;2023-08-31T01:59:03;13.20;99.90
10282;DHT22;5186;59.472;18.048;2023-08-31T02:01:29;13.10;99.90
10282;DHT22;5186;59.472;18.048;2023-08-31T02:03:54;13.20;99.90
10282;DHT22;5186;59.472;18.048;2023-08-31T02:06:20;13.20;99.90
10282;DHT22;5186;59.472;18.048;2023-08-31T02:08:46;13.20;99.90
10282;DHT22;5186;59.472;18.048;2023-08-31T02:11:13;13.20;99.90
10282;DHT22;5186;59.472;18.048;2023-08-31T02:13:39;13.20;99.90
10282;DHT22;5186;59.472;18.048;2023-08-31T02:16:05;13.20;99.90
10282;DHT22;5186;59.472;18.048;2023-08-31T02:18:31;13.10;99.90
10282;DHT22;5186;59.472;18.048;2023-08-31T02:20:56;13.20;99.90
10282;DHT22;5186;59.472;18.048;2023-08-31T02:23:23;13.20;99.90
10282;DHT22;5186;59.472;18.048;2023-08-31T02:25:48;13.20;99.90
10282;DHT22;5186;59.472;18.048;2023-08-31T02:28:14;13.10;99.90
10282;DHT22;5186;59.472;18.048;2023-08-31T02:30:39;13.10;99.90
10282;DHT22;5186;59.472;18.048;2023-08-31T02:33:05;13.10;99.90
10282;DHT22;5186;59.472;18.048;2023-08-31T02:35:31;13.00;99.90
10282;DHT22;5186;59.472;18.048;2023-08-31T02:37:56;13.00;99.90
10282;DHT22;5186;59.472;18.048;2023-08-31T02:40:22;13.00;99.90
10282;DHT22;5186;59.472;18.048;2023-08-31T02:42:50;13.00;99.90
10282;DHT22;5186;59.472;18.048;2023-08-31T02:45:16;13.00;99.90
10282;DHT22;5186;59.472;18.048;2023-08-31T02:47:43;13.00;99.90
10282;DHT22;5186;59.472;18.048;2023-08-31T02:50:08;12.90;99.90
10282;DHT22;5186;59.472;18.048;2023-08-31T02:52:34;12.90;99.90
10282;DHT22;5186;59.472;18.048;2023-08-31T02:55:00;12.90;99.90
10282;DHT22;5186;59.472;18.048;2023-08-31T02:57:25;12.90;99.90
10282;DHT22;5186;59.472;18.048;2023-08-31T02:59:51;13.00;99.90
10282;DHT22;5186;59.472;18.048;2023-08-31T03:02:17;13.00;99.90
10282;DHT22;5186;59.472;18.048;2023-08-31T03:04:42;13.00;99.90
10282;DHT22;5186;59.472;18.048;2023-08-31T03:07:08;13.00;99.90
10282;DHT22;5186;59.472;18.048;2023-08-31T03:09:33;13.10;99.90
10282;DHT22;5186;59.472;18.048;2023-08-31T03:11:59;13.10;99.90
10282;DHT22;5186;59.472;18.048;2023-08-31T03:14:25;13.00;99.90
10282;DHT22;5186;59.472;18.048;2023-08-31T03:16:51;13.00;99.90
10282;DHT22;5186;59.472;18.048;2023-08-31T03:19:16;13.10;99.90
10282;DHT22;5186;59.472;18.048;2023-08-31T03:21:42;13.10;99.90
10282;DHT22;5186;59.472;18.048;2023-08-31T03:24:08;13.10;99.90
10282;DHT22;5186;59.472;18.048;2023-08-31T03:26:33;13.10;99.90
10282;DHT22;5186;59.472;18.048;2023-08-31T03:28:59;13.10;99.90
10282;DHT22;5186;59.472;18.048;2023-08-31T03:31:25;13.10;99.90
10282;DHT22;5186;59.472;18.048;2023-08-31T03:33:50;13.10;99.90
10282;DHT22;5186;59.472;18.048;2023-08-31T03:36:16;13.10;99.90
10282;DHT22;5186;59.472;18.048;2023-08-31T03:38:41;13.10;99.90
10282;DHT22;5186;59.472;18.048;2023-08-31T03:41:07;13.10;99.90
10282;DHT22;5186;59.472;18.048;2023-08-31T03:43:33;13.10;99.90
10282;DHT22;5186;59.472;18.048;2023-08-31T03:45:59;13.20;99.90
10282;DHT22;5186;59.472;18.048;2023-08-31T03:48:25;13.10;99.90
10282;DHT22;5186;59.472;18.048;2023-08-31T03:50:52;13.20;99.90
10282;DHT22;5186;59.472;18.048;2023-08-31T03:53:17;13.20;99.90
10282;DHT22;5186;59.472;18.048;2023-08-31T03:55:43;13.20;99.90
10282;DHT22;5186;59.472;18.048;2023-08-31T03:58:09;13.30;99.90
10282;DHT22;5186;59.472;18.048;2023-08-31T04:00:34;13.30;99.90
10282;DHT22;5186;59.472;18.048;2023-08-31T04:03:00;13.30;99.90
10282;DHT22;5186;59.472;18.048;2023-08-31T04:05:26;13.30;99.90
10282;DHT22;5186;59.472;18.048;2023-08-31T04:07:52;13.30;99.90
10282;DHT22;5186;59.472;18.048;2023-08-31T04:10:17;13.30;99.90
10282;DHT22;5186;59.472;18.048;2023-08-31T04:12:44;13.40;99.90
10282;DHT22;5186;59.472;18.048;2023-08-31T04:15:10;13.40;99.90
10282;DHT22;5186;59.472;18.048;2023-08-31T04:17:35;13.40;99.90
10282;DHT22;5186;59.472;18.048;2023-08-31T04:20:01;13.40;99.90
10282;DHT22;5186;59.472;18.048;2023-08-31T04:22:26;13.40;99.90
10282;DHT22;5186;59.472;18.048;2023-08-31T04:24:53;13.50;99.90
10282;DHT22;5186;59.472;18.048;2023-08-31T04:27:18;13.50;99.90
10282;DHT22;5186;59.472;18.048;2023-08-31T04:29:44;13.50;99.90
10282;DHT22;5186;59.472;18.048;2023-08-31T04:32:09;13.50;99.90
10282;DHT22;5186;59.472;18.048;2023-08-31T04:34:35;13.50;99.90
10282;DHT22;5186;59.472;18.048;2023-08-31T04:37:01;13.50;99.90
10282;DHT22;5186;59.472;18.048;2023-08-31T04:39:27;13.50;99.90
10282;DHT22;5186;59.472;18.048;2023-08-31T04:41:53;13.60;99.90
10282;DHT22;5186;59.472;18.048;2023-08-31T04:44:18;13.60;99.90
10282;DHT22;5186;59.472;18.048;2023-08-31T04:46:44;13.60;99.90
10282;DHT22;5186;59.472;18.048;2023-08-31T04:49:09;13.70;99.90
10282;DHT22;5186;59.472;18.048;2023-08-31T04:51:35;13.70;99.90
10282;DHT22;5186;59.472;18.048;2023-08-31T04:54:04;13.70;99.90
10282;DHT22;5186;59.472;18.048;2023-08-31T04:56:31;13.70;99.90
10282;DHT22;5186;59.472;18.048;2023-08-31T04:58:58;13.80;99.90
10282;DHT22;5186;59.472;18.048;2023-08-31T05:01:23;13.80;99.90
10282;DHT22;5186;59.472;18.048;2023-08-31T05:03:49;13.90;99.90
10282;DHT22;5186;59.472;18.048;2023-08-31T05:06:15;13.90;99.90
10282;DHT22;5186;59.472;18.048;2023-08-31T05:08:40;13.90;99.90
10282;DHT22;5186;59.472;18.048;2023-08-31T05:11:06;13.90;99.90
10282;DHT22;5186;59.472;18.048;2023-08-31T05:13:31;13.90;99.90
10282;DHT22;5186;59.472;18.048;2023-08-31T05:15:57;14.00;99.90
10282;DHT22;5186;59.472;18.048;2023-08-31T05:18:22;14.00;99.90
10282;DHT22;5186;59.472;18.048;2023-08-31T05:20:48;14.00;99.90
10282;DHT22;5186;59.472;18.048;2023-08-31T05:23:14;14.00;99.90
10282;DHT22;5186;59.472;18.048;2023-08-31T05:25:44;14.10;99.90
10282;DHT22;5186;59.472;18.048;2023-08-31T05:28:10;14.10;99.90
10282;DHT22;5186;59.472;18.048;2023-08-31T05:30:35;14.10;99.90
10282;DHT22;5186;59.472;18.048;2023-08-31T05:33:01;14.20;99.90
10282;DHT22;5186;59.472;18.048;2023-08-31T05:35:27;14.20;99.90
10282;DHT22;5186;59.472;18.048;2023-08-31T05:37:52;14.30;99.90
10282;DHT22;5186;59.472;18.048;2023-08-31T05:40:18;14.30;99.90
10282;DHT22;5186;59.472;18.048;2023-08-31T05:42:44;14.40;99.90
10282;DHT22;5186;59.472;18.048;2023-08-31T05:45:10;14.40;99.90
10282;DHT22;5186;59.472;18.048;2023-08-31T05:47:35;14.50;99.90
10282;DHT22;5186;59.472;18.048;2023-08-31T05:50:01;14.50;99.90
10282;DHT22;5186;59.472;18.048;2023-08-31T05:52:27;14.50;99.90
10282;DHT22;5186;59.472;18.048;2023-08-31T05:54:52;14.60;99.90
10282;DHT22;5186;59.472;18.048;2023-08-31T05:57:19;14.60;99.90
10282;DHT22;5186;59.472;18.048;2023-08-31T05:59:46;14.60;99.90
10282;DHT22;5186;59.472;18.048;2023-08-31T06:02:12;14.70;99.90
10282;DHT22;5186;59.472;18.048;2023-08-31T06:04:38;14.70;99.90
10282;DHT22;5186;59.472;18.048;2023-08-31T06:07:03;14.70;99.90
10282;DHT22;5186;59.472;18.048;2023-08-31T06:09:29;14.70;99.90
10282;DHT22;5186;59.472;18.048;2023-08-31T06:11:54;14.70;99.90
10282;DHT22;5186;59.472;18.048;2023-08-31T06:14:20;14.80;99.90
10282;DHT22;5186;59.472;18.048;2023-08-31T06:16:45;14.80;99.90
10282;DHT22;5186;59.472;18.048;2023-08-31T06:19:11;14.80;99.90
10282;DHT22;5186;59.472;18.048;2023-08-31T06:21:40;14.90;99.90
10282;DHT22;5186;59.472;18.048;2023-08-31T06:24:07;14.90;99.90
10282;DHT22;5186;59.472;18.048;2023-08-31T06:26:35;14.90;99.90
10282;DHT22;5186;59.472;18.048;2023-08-31T06:29:01;15.00;99.90
10282;DHT22;5186;59.472;18.048;2023-08-31T06:31:28;15.00;99.90
10282;DHT22;5186;59.472;18.048;2023-08-31T06:33:54;15.10;99.90
10282;DHT22;5186;59.472;18.048;2023-08-31T06:36:20;15.10;99.90
10282;DHT22;5186;59.472;18.048;2023-08-31T06:38:45;15.20;99.90
10282;DHT22;5186;59.472;18.048;2023-08-31T06:41:11;15.20;99.90
10282;DHT22;5186;59.472;18.048;2023-08-31T06:43:36;15.20;99.90
10282;DHT22;5186;59.472;18.048;2023-08-31T06:46:02;15.30;99.90
10282;DHT22;5186;59.472;18.048;2023-08-31T06:48:28;15.30;99.90
10282;DHT22;5186;59.472;18.048;2023-08-31T06:50:54;15.40;99.90
10282;DHT22;5186;59.472;18.048;2023-08-31T06:53:19;15.40;99.90
10282;DHT22;5186;59.472;18.048;2023-08-31T06:55:45;15.40;99.90
10282;DHT22;5186;59.472;18.048;2023-08-31T06:58:10;15.50;99.90
10282;DHT22;5186;59.472;18.048;2023-08-31T07:00:36;15.50;99.90
10282;DHT22;5186;59.472;18.048;2023-08-31T07:03:02;15.60;99.90
10282;DHT22;5186;59.472;18.048;2023-08-31T07:05:33;15.70;99.90
10282;DHT22;5186;59.472;18.048;2023-08-31T07:08:00;15.70;99.90
10282;DHT22;5186;59.472;18.048;2023-08-31T07:10:27;15.80;99.90
10282;DHT22;5186;59.472;18.048;2023-08-31T07:12:53;15.90;99.90
10282;DHT22;5186;59.472;18.048;2023-08-31T07:15:18;15.90;99.90
10282;DHT22;5186;59.472;18.048;2023-08-31T07:17:44;16.00;99.90
10282;DHT22;5186;59.472;18.048;2023-08-31T07:20:10;16.10;99.90
10282;DHT22;5186;59.472;18.048;2023-08-31T07:22:37;16.10;99.90
10282;DHT22;5186;59.472;18.048;2023-08-31T07:25:03;16.20;99.90
10282;DHT22;5186;59.472;18.048;2023-08-31T07:27:29;16.20;99.90
10282;DHT22;5186;59.472;18.048;2023-08-31T07:29:55;16.30;99.90
10282;DHT22;5186;59.472;18.048;2023-08-31T07:32:20;16.30;99.90
10282;DHT22;5186;59.472;18.048;2023-08-31T07:34:47;16.30;99.90
10282;DHT22;5186;59.472;18.048;2023-08-31T07:37:13;16.40;99.90
10282;DHT22;5186;59.472;18.048;2023-08-31T07:39:38;16.40;99.90
10282;DHT22;5186;59.472;18.048;2023-08-31T07:42:05;16.50;99.90
10282;DHT22;5186;59.472;18.048;2023-08-31T07:44:31;16.50;99.90
10282;DHT22;5186;59.472;18.048;2023-08-31T07:46:56;16.60;99.90
10282;DHT22;5186;59.472;18.048;2023-08-31T07:49:22;16.70;99.90
10282;DHT22;5186;59.472;18.048;2023-08-31T07:51:48;16.70;99.90
10282;DHT22;5186;59.472;18.048;2023-08-31T07:54:22;16.80;99.90
10282;DHT22;5186;59.472;18.048;2023-08-31T07:56:48;16.80;99.90
10282;DHT22;5186;59.472;18.048;2023-08-31T07:59:14;16.90;99.90
10282;DHT22;5186;59.472;18.048;2023-08-31T08:01:40;16.90;99.90
10282;DHT22;5186;59.472;18.048;2023-08-31T08:04:06;16.90;99.90
10282;DHT22;5186;59.472;18.048;2023-08-31T08:06:32;17.00;99.90
10282;DHT22;5186;59.472;18.048;2023-08-31T08:08:57;17.10;99.90
10282;DHT22;5186;59.472;18.048;2023-08-31T08:11:23;17.20;99.90
10282;DHT22;5186;59.472;18.048;2023-08-31T08:13:48;17.20;99.90
10282;DHT22;5186;59.472;18.048;2023-08-31T08:16:14;17.30;99.90
10282;DHT22;5186;59.472;18.048;2023-08-31T08:18:40;17.30;99.90
10282;DHT22;5186;59.472;18.048;2023-08-31T08:21:06;17.30;99.90
10282;DHT22;5186;59.472;18.048;2023-08-31T08:23:32;17.40;99.90
10282;DHT22;5186;59.472;18.048;2023-08-31T08:25:58;17.40;99.90
10282;DHT22;5186;59.472;18.048;2023-08-31T08:28:26;17.50;99.90
10282;DHT22;5186;59.472;18.048;2023-08-31T08:30:52;17.60;99.90
10282;DHT22;5186;59.472;18.048;2023-08-31T08:33:18;17.60;99.90
10282;DHT22;5186;59.472;18.048;2023-08-31T08:35:43;17.70;99.90
10282;DHT22;5186;59.472;18.048;2023-08-31T08:38:09;17.70;99.90
10282;DHT22;5186;59.472;18.048;2023-08-31T08:40:35;17.80;99.90
10282;DHT22;5186;59.472;18.048;2023-08-31T08:43:01;17.90;99.90
10282;DHT22;5186;59.472;18.048;2023-08-31T08:45:32;17.90;99.90
10282;DHT22;5186;59.472;18.048;2023-08-31T08:48:02;17.90;99.90
10282;DHT22;5186;59.472;18.048;2023-08-31T08:50:31;17.90;99.90
10282;DHT22;5186;59.472;18.048;2023-08-31T08:53:02;18.00;99.90
10282;DHT22;5186;59.472;18.048;2023-08-31T08:55:28;18.00;99.90
10282;DHT22;5186;59.472;18.048;2023-08-31T08:57:53;18.10;99.90
10282;DHT22;5186;59.472;18.048;2023-08-31T09:00:19;18.10;99.90
10282;DHT22;5186;59.472;18.048;2023-08-31T09:02:45;18.20;99.90
10282;DHT22;5186;59.472;18.048;2023-08-31T09:05:11;18.20;99.90
10282;DHT22;5186;59.472;18.048;2023-08-31T09:07:37;18.20;99.90
10282;DHT22;5186;59.472;18.048;2023-08-31T09:10:03;18.30;99.90
10282;DHT22;5186;59.472;18.048;2023-08-31T09:12:29;18.30;99.90
10282;DHT22;5186;59.472;18.048;2023-08-31T09:15:03;18.40;99.90
10282;DHT22;5186;59.472;18.048;2023-08-31T09:17:40;18.40;99.90
10282;DHT22;5186;59.472;18.048;2023-08-31T09:20:07;18.40;99.90
10282;DHT22;5186;59.472;18.048;2023-08-31T09:22:33;18.50;99.90
10282;DHT22;5186;59.472;18.048;2023-08-31T09:24:59;18.60;99.90
10282;DHT22;5186;59.472;18.048;2023-08-31T09:27:25;18.60;99.90
10282;DHT22;5186;59.472;18.048;2023-08-31T09:29:54;18.70;99.90
10282;DHT22;5186;59.472;18.048;2023-08-31T09:32:20;18.70;99.90
10282;DHT22;5186;59.472;18.048;2023-08-31T09:34:47;18.80;99.90
10282;DHT22;5186;59.472;18.048;2023-08-31T09:37:15;18.90;99.90
10282;DHT22;5186;59.472;18.048;2023-08-31T09:39:42;19.00;99.90
10282;DHT22;5186;59.472;18.048;2023-08-31T09:42:07;19.00;99.90
10282;DHT22;5186;59.472;18.048;2023-08-31T09:44:33;18.90;99.90
10282;DHT22;5186;59.472;18.048;2023-08-31T09:46:59;19.00;99.90
10282;DHT22;5186;59.472;18.048;2023-08-31T09:49:26;19.00;99.90
10282;DHT22;5186;59.472;18.048;2023-08-31T09:51:52;19.00;99.90
10282;DHT22;5186;59.472;18.048;2023-08-31T09:54:19;19.10;99.90
10282;DHT22;5186;59.472;18.048;2023-08-31T09:56:47;19.10;99.90
10282;DHT22;5186;59.472;18.048;2023-08-31T09:59:14;19.10;99.90
10282;DHT22;5186;59.472;18.048;2023-08-31T10:01:40;19.10;99.90
10282;DHT22;5186;59.472;18.048;2023-08-31T10:04:07;19.10;99.90
10282;DHT22;5186;59.472;18.048;2023-08-31T10:06:39;19.10;99.90
10282;DHT22;5186;59.472;18.048;2023-08-31T10:09:05;19.10;99.90
10282;DHT22;5186;59.472;18.048;2023-08-31T10:11:31;19.20;99.90
10282;DHT22;5186;59.472;18.048;2023-08-31T10:13:58;19.30;99.90
10282;DHT22;5186;59.472;18.048;2023-08-31T10:16:27;19.30;99.90
10282;DHT22;5186;59.472;18.048;2023-08-31T10:18:55;19.40;99.90
10282;DHT22;5186;59.472;18.048;2023-08-31T10:21:21;19.50;99.90
10282;DHT22;5186;59.472;18.048;2023-08-31T10:23:48;19.50;99.90
10282;DHT22;5186;59.472;18.048;2023-08-31T10:26:33;19.50;99.90
10282;DHT22;5186;59.472;18.048;2023-08-31T10:28:59;19.60;99.90
10282;DHT22;5186;59.472;18.048;2023-08-31T10:31:30;19.70;99.90
10282;DHT22;5186;59.472;18.048;2023-08-31T10:34:00;19.70;99.90
10282;DHT22;5186;59.472;18.048;2023-08-31T10:36:47;19.80;99.90
10282;DHT22;5186;59.472;18.048;2023-08-31T10:39:17;19.80;99.90
10282;DHT22;5186;59.472;18.048;2023-08-31T10:42:03;19.80;99.90
10282;DHT22;5186;59.472;18.048;2023-08-31T10:44:31;19.80;99.90
10282;DHT22;5186;59.472;18.048;2023-08-31T10:47:00;19.80;99.90
10282;DHT22;5186;59.472;18.048;2023-08-31T10:49:25;19.70;99.90
10282;DHT22;5186;59.472;18.048;2023-08-31T10:51:56;19.70;99.90
10282;DHT22;5186;59.472;18.048;2023-08-31T10:56:52;19.80;99.90
10282;DHT22;5186;59.472;18.048;2023-08-31T10:59:22;19.80;99.90
10282;DHT22;5186;59.472;18.048;2023-08-31T11:02:01;19.80;99.90
10282;DHT22;5186;59.472;18.048;2023-08-31T11:04:30;19.80;99.90
10282;DHT22;5186;59.472;18.048;2023-08-31T11:07:18;19.80;99.90
10282;DHT22;5186;59.472;18.048;2023-08-31T11:09:46;19.90;99.90
10282;DHT22;5186;59.472;18.048;2023-08-31T11:12:12;19.90;99.90
10282;DHT22;5186;59.472;18.048;2023-08-31T11:14:38;20.00;99.90
10282;DHT22;5186;59.472;18.048;2023-08-31T11:17:04;19.90;99.90
10282;DHT22;5186;59.472;18.048;2023-08-31T11:19:31;19.90;99.90
10282;DHT22;5186;59.472;18.048;2023-08-31T11:21:58;20.00;99.90
10282;DHT22;5186;59.472;18.048;2023-08-31T11:24:25;20.10;99.90
10282;DHT22;5186;59.472;18.048;2023-08-31T11:26:51;20.10;99.90
10282;DHT22;5186;59.472;18.048;2023-08-31T11:29:17;20.20;99.90
10282;DHT22;5186;59.472;18.048;2023-08-31T11:31:43;20.20;99.90
10282;DHT22;5186;59.472;18.048;2023-08-31T11:34:16;20.20;99.90
10282;DHT22;5186;59.472;18.048;2023-08-31T11:36:43;20.20;99.90
10282;DHT22;5186;59.472;18.048;2023-08-31T11:39:10;20.30;99.90
10282;DHT22;5186;59.472;18.048;2023-08-31T11:41:36;20.20;99.90
10282;DHT22;5186;59.472;18.048;2023-08-31T11:44:08;20.20;99.90
10282;DHT22;5186;59.472;18.048;2023-08-31T11:46:35;20.20;99.90
10282;DHT22;5186;59.472;18.048;2023-08-31T11:49:01;20.30;99.90
10282;DHT22;5186;59.472;18.048;2023-08-31T11:51:28;20.30;99.90
10282;DHT22;5186;59.472;18.048;2023-08-31T11:53:56;20.40;99.90
10282;DHT22;5186;59.472;18.048;2023-08-31T11:56:24;20.60;99.90
10282;DHT22;5186;59.472;18.048;2023-08-31T11:58:51;20.60;99.90
10282;DHT22;5186;59.472;18.048;2023-08-31T12:01:22;20.70;99.90
10282;DHT22;5186;59.472;18.048;2023-08-31T12:03:49;20.80;99.90
10282;DHT22;5186;59.472;18.048;2023-08-31T12:06:18;20.80;99.90
10282;DHT22;5186;59.472;18.048;2023-08-31T12:08:44;20.90;99.90
10282;DHT22;5186;59.472;18.048;2023-08-31T12:11:09;20.90;99.90
10282;DHT22;5186;59.472;18.048;2023-08-31T12:13:35;20.90;99.90
10282;DHT22;5186;59.472;18.048;2023-08-31T12:16:01;20.80;99.90
10282;DHT22;5186;59.472;18.048;2023-08-31T12:18:30;20.80;99.90
10282;DHT22;5186;59.472;18.048;2023-08-31T12:20:59;20.70;99.90
10282;DHT22;5186;59.472;18.048;2023-08-31T12:23:25;20.70;99.90
10282;DHT22;5186;59.472;18.048;2023-08-31T12:25:52;20.60;99.90
10282;DHT22;5186;59.472;18.048;2023-08-31T12:28:19;20.60;99.90
10282;DHT22;5186;59.472;18.048;2023-08-31T12:30:57;20.60;99.90
10282;DHT22;5186;59.472;18.048;2023-08-31T12:33:23;20.60;99.90
10282;DHT22;5186;59.472;18.048;2023-08-31T12:35:49;20.60;99.90
10282;DHT22;5186;59.472;18.048;2023-08-31T12:38:14;20.70;99.90
10282;DHT22;5186;59.472;18.048;2023-08-31T12:40:40;20.70;99.90
10282;DHT22;5186;59.472;18.048;2023-08-31T12:43:06;20.70;99.90
10282;DHT22;5186;59.472;18.048;2023-08-31T12:45:32;20.70;99.90
10282;DHT22;5186;59.472;18.048;2023-08-31T12:47:58;20.60;99.90
10282;DHT22;5186;59.472;18.048;2023-08-31T12:50:23;20.50;99.90
10282;DHT22;5186;59.472;18.048;2023-08-31T12:52:49;20.50;99.90
10282;DHT22;5186;59.472;18.048;2023-08-31T12:55:15;20.40;99.90
10282;DHT22;5186;59.472;18.048;2023-08-31T12:57:42;20.40;99.90
10282;DHT22;5186;59.472;18.048;2023-08-31T13:00:09;20.30;99.90
10282;DHT22;5186;59.472;18.048;2023-08-31T13:02:38;20.30;99.90
10282;DHT22;5186;59.472;18.048;2023-08-31T13:05:04;20.30;99.90
10282;DHT22;5186;59.472;18.048;2023-08-31T13:07:31;20.30;99.90
10282;DHT22;5186;59.472;18.048;2023-08-31T13:09:59;20.30;99.90
10282;DHT22;5186;59.472;18.048;2023-08-31T13:12:24;20.40;99.90
10282;DHT22;5186;59.472;18.048;2023-08-31T13:14:50;20.50;99.90
10282;DHT22;5186;59.472;18.048;2023-08-31T13:17:15;20.70;99.90
10282;DHT22;5186;59.472;18.048;2023-08-31T13:19:41;20.70;99.90
10282;DHT22;5186;59.472;18.048;2023-08-31T13:22:06;20.80;99.90
10282;DHT22;5186;59.472;18.048;2023-08-31T13:24:32;20.80;99.90
10282;DHT22;5186;59.472;18.048;2023-08-31T13:26:58;20.90;99.90
10282;DHT22;5186;59.472;18.048;2023-08-31T13:29:23;20.90;99.90
10282;DHT22;5186;59.472;18.048;2023-08-31T13:31:49;20.90;99.90
10282;DHT22;5186;59.472;18.048;2023-08-31T13:34:15;21.00;99.90
10282;DHT22;5186;59.472;18.048;2023-08-31T13:36:41;21.00;99.90
10282;DHT22;5186;59.472;18.048;2023-08-31T13:39:06;21.10;99.90
10282;DHT22;5186;59.472;18.048;2023-08-31T13:41:32;21.10;99.90
10282;DHT22;5186;59.472;18.048;2023-08-31T13:43:58;21.10;99.90
10282;DHT22;5186;59.472;18.048;2023-08-31T13:46:24;21.00;99.90
10282;DHT22;5186;59.472;18.048;2023-08-31T13:48:49;21.00;99.90
10282;DHT22;5186;59.472;18.048;2023-08-31T13:51:15;21.00;99.90
10282;DHT22;5186;59.472;18.048;2023-08-31T13:53:40;20.90;99.90
10282;DHT22;5186;59.472;18.048;2023-08-31T13:56:06;20.90;99.90
10282;DHT22;5186;59.472;18.048;2023-08-31T13:58:32;20.80;99.90
10282;DHT22;5186;59.472;18.048;2023-08-31T14:01:00;20.80;99.90
10282;DHT22;5186;59.472;18.048;2023-08-31T14:03:26;20.80;99.90
10282;DHT22;5186;59.472;18.048;2023-08-31T14:05:52;20.80;99.90
10282;DHT22;5186;59.472;18.048;2023-08-31T14:08:18;20.80;99.90
10282;DHT22;5186;59.472;18.048;2023-08-31T14:10:43;20.80;99.90
10282;DHT22;5186;59.472;18.048;2023-08-31T14:13:09;20.90;99.90
10282;DHT22;5186;59.472;18.048;2023-08-31T14:15:34;21.00;99.90
10282;DHT22;5186;59.472;18.048;2023-08-31T14:18:00;21.00;99.90
10282;DHT22;5186;59.472;18.048;2023-08-31T14:20:25;21.10;99.90
10282;DHT22;5186;59.472;18.048;2023-08-31T14:22:52;21.10;99.90
10282;DHT22;5186;59.472;18.048;2023-08-31T14:25:18;21.20;99.90
10282;DHT22;5186;59.472;18.048;2023-08-31T14:27:43;21.30;99.90
10282;DHT22;5186;59.472;18.048;2023-08-31T14:30:09;21.30;99.90
10282;DHT22;5186;59.472;18.048;2023-08-31T14:32:35;21.30;99.90
10282;DHT22;5186;59.472;18.048;2023-08-31T14:35:00;21.30;99.90
10282;DHT22;5186;59.472;18.048;2023-08-31T14:37:26;21.30;99.90
10282;DHT22;5186;59.472;18.048;2023-08-31T14:39:51;21.30;99.90
10282;DHT22;5186;59.472;18.048;2023-08-31T14:42:17;21.10;99.90
10282;DHT22;5186;59.472;18.048;2023-08-31T14:44:48;21.10;99.90
10282;DHT22;5186;59.472;18.048;2023-08-31T14:47:17;21.10;99.90
10282;DHT22;5186;59.472;18.048;2023-08-31T14:49:42;21.00;99.90
10282;DHT22;5186;59.472;18.048;2023-08-31T14:52:08;20.90;99.90
10282;DHT22;5186;59.472;18.048;2023-08-31T14:54:34;20.90;99.90
10282;DHT22;5186;59.472;18.048;2023-08-31T14:57:00;20.80;99.90
10282;DHT22;5186;59.472;18.048;2023-08-31T14:59:25;20.70;99.90
10282;DHT22;5186;59.472;18.048;2023-08-31T15:01:51;20.70;99.90
10282;DHT22;5186;59.472;18.048;2023-08-31T15:04:17;20.60;99.90
10282;DHT22;5186;59.472;18.048;2023-08-31T15:06:42;20.50;99.90
10282;DHT22;5186;59.472;18.048;2023-08-31T15:09:08;20.50;99.90
10282;DHT22;5186;59.472;18.048;2023-08-31T15:11:34;20.50;99.90
10282;DHT22;5186;59.472;18.048;2023-08-31T15:13:59;20.50;99.90
10282;DHT22;5186;59.472;18.048;2023-08-31T15:16:25;20.40;99.90
10282;DHT22;5186;59.472;18.048;2023-08-31T15:18:51;20.30;99.90
10282;DHT22;5186;59.472;18.048;2023-08-31T15:21:16;20.30;99.90
10282;DHT22;5186;59.472;18.048;2023-08-31T15:23:43;20.30;99.90
10282;DHT22;5186;59.472;18.048;2023-08-31T15:26:10;20.30;99.90
10282;DHT22;5186;59.472;18.048;2023-08-31T15:28:36;20.30;99.90
10282;DHT22;5186;59.472;18.048;2023-08-31T15:31:02;20.20;99.90
10282;DHT22;5186;59.472;18.048;2023-08-31T15:33:27;20.20;99.90
10282;DHT22;5186;59.472;18.048;2023-08-31T15:36:05;20.20;99.90
10282;DHT22;5186;59.472;18.048;2023-08-31T15:38:31;20.10;99.90
10282;DHT22;5186;59.472;18.048;2023-08-31T15:40:58;20.10;99.90